Murfreesboro, TN (37127)

2:58 PM CST on December 22, 2014 (GMT -0600)
Rushbrook | Change Station
CLOSE
Current Station
Personal Weather Station
Location: Murfreesboro, TN
Elevation: 630 ft
Nearby Weather Stations

Elev 630 ft 35.80 °N, 86.34 °W | Updated 3 minutes ago

Overcast
Overcast
52.7 °F
Feels Like 52.7 °F
N
0.0
Wind Variable Wind from NE

Today
High -- | Low -- °F
--% Chance of Precip.
Yesterday
High -- | Low -- °F
Precip. -- in
6:51 AM 4:36 PM
New Moon, 1% visible
Pressure 29.79 in
Visibility 4.0 miles
Clouds Overcast 1900 ft
Dew Point 50 °F
Humidity 90%
Rainfall 0.00 in
Snow Depth Not available.
UV 0 out of 12
Pollen .10 out of 12
Air Quality Not available.
Flu Activity Not available.
SPECI KMQY 222017Z 18006KT 4SM -RA BR OVC019 11/09 A2979 RMK AO2 P0001

More Conditions Fewer Conditions

Pressure 29.79 in
Visibility 4.0 miles
Clouds Overcast 1900 ft
Dew Point 50 °F
Humidity 90%
Rainfall 0.00 in
Snow Depth Not available.
UV 0 out of 12
Pollen .10 out of 12
Air Quality Not available.
Flu Activity Not available.
SPECI KMQY 222017Z 18006KT 4SM -RA BR OVC019 11/09 A2979 RMK AO2 P0001

More Conditions Fewer Conditions

10-Day Weather Forecast

Almanac

Astronomy

Dec. 22, 2014 Rise Set
Actual Time
Civil Twilight
Nautical Twilight
Astronomical Twilight
Moon
Length of Visible Light
Length of Day
Tomorrow will be .
, % of the Moon is Illuminated

Today's Extremes

State Highs State Lows

Community

WunderPhotos

Upload Photos

1,779,676 photos uploaded!

WunderBlogs® & News

Nearby

Air Quality

  Air Quality AQ Index Pollutant
Not available.

Snow Depth

Station Depth Elevation

Earthquake Activity

City Distance Mag. Time & Date
Minimum magnitude displayed is 2.5.

Coastal Water Temperatures

Place Temperature

Nearby Weather Stations